createdAt,value
2018-08-22T00:01:35.904Z,28.60
2018-08-22T00:04:04.818Z,29.20
2018-08-22T00:06:33.716Z,29.67
2018-08-22T00:09:02.976Z,35.70
2018-08-22T00:11:31.703Z,30.40
2018-08-22T00:14:00.443Z,29.13
2018-08-22T00:16:29.238Z,31.93
2018-08-22T00:18:57.895Z,33.40
2018-08-22T00:21:26.558Z,31.93
2018-08-22T00:23:55.255Z,35.77
2018-08-22T00:26:23.910Z,32.43
2018-08-22T00:28:52.703Z,32.50
2018-08-22T00:31:21.513Z,36.07
2018-08-22T00:33:50.228Z,34.73
2018-08-22T00:36:19.630Z,38.07
2018-08-22T00:38:48.242Z,35.33
2018-08-22T00:41:16.903Z,33.70
2018-08-22T00:43:45.954Z,34.80
2018-08-22T00:46:14.598Z,32.40
2018-08-22T00:48:48.885Z,32.07
2018-08-22T00:51:39.513Z,33.03
2018-08-22T00:54:08.594Z,32.63
2018-08-22T00:56:37.616Z,33.00
2018-08-22T00:59:06.691Z,33.30
2018-08-22T01:01:35.480Z,32.63
2018-08-22T01:04:04.358Z,32.63
2018-08-22T01:06:33.115Z,32.57
2018-08-22T01:09:03.647Z,33.37
2018-08-22T01:11:32.378Z,34.20
2018-08-22T01:14:01.085Z,33.67
2018-08-22T01:16:29.802Z,33.50
2018-08-22T01:18:58.576Z,33.00
2018-08-22T01:21:27.316Z,34.67
2018-08-22T01:23:56.041Z,33.47
2018-08-22T01:26:24.848Z,38.27
2018-08-22T01:28:53.436Z,35.10
2018-08-22T01:31:22.068Z,38.30
2018-08-22T01:33:50.692Z,37.53
2018-08-22T01:36:19.290Z,36.93
2018-08-22T01:38:47.885Z,33.13
2018-08-22T01:41:16.509Z,33.83
2018-08-22T01:43:45.115Z,35.63
2018-08-22T01:46:13.705Z,36.00
2018-08-22T01:48:42.366Z,34.33
2018-08-22T01:51:11.098Z,34.30
2018-08-22T01:53:39.769Z,32.40
2018-08-22T01:56:08.511Z,34.87
2018-08-22T01:58:37.223Z,32.27
2018-08-22T02:01:06.017Z,31.20
2018-08-22T02:03:34.763Z,28.03
2018-08-22T02:06:03.476Z,31.10
2018-08-22T02:08:32.112Z,34.97
2018-08-22T02:11:00.683Z,36.30
2018-08-22T02:13:29.255Z,36.63
2018-08-22T02:15:57.910Z,36.87
2018-08-22T02:18:26.603Z,39.93
2018-08-22T02:20:55.288Z,34.53
2018-08-22T02:23:24.008Z,37.83
2018-08-22T02:25:52.718Z,30.37
2018-08-22T02:28:21.368Z,33.87
2018-08-22T02:30:49.988Z,32.70
2018-08-22T02:33:18.567Z,37.63
2018-08-22T02:35:47.237Z,38.40
2018-08-22T02:38:21.195Z,37.87
2018-08-22T02:40:49.775Z,37.23
2018-08-22T02:43:18.375Z,34.93
2018-08-22T02:45:47.042Z,37.20
2018-08-22T02:48:16.090Z,41.20
2018-08-22T02:50:44.834Z,38.20
2018-08-22T02:53:13.516Z,43.60
2018-08-22T02:55:42.449Z,43.97
2018-08-22T02:58:11.342Z,39.43
2018-08-22T03:00:40.085Z,37.60
2018-08-22T03:03:08.805Z,43.23
2018-08-22T03:05:37.559Z,42.67
2018-08-22T03:08:06.365Z,40.00
2018-08-22T03:10:34.969Z,41.67
2018-08-22T03:13:03.575Z,34.30
2018-08-22T03:15:32.167Z,30.17
2018-08-22T03:18:00.897Z,29.27
2018-08-22T03:20:29.716Z,32.30
2018-08-22T03:22:58.485Z,34.73
2018-08-22T03:25:27.290Z,36.07
2018-08-22T03:27:55.963Z,39.60
2018-08-22T03:30:24.624Z,46.93
2018-08-22T03:32:53.297Z,36.67
2018-08-22T03:35:21.955Z,32.40
2018-08-22T03:37:50.596Z,40.90
2018-08-22T03:40:19.210Z,34.63
2018-08-22T03:42:47.830Z,31.47
2018-08-22T03:45:16.433Z,32.47
2018-08-22T03:47:45.172Z,42.10
2018-08-22T03:50:13.963Z,38.17
2018-08-22T03:52:42.686Z,33.77
2018-08-22T03:55:11.467Z,34.60
2018-08-22T03:57:40.797Z,32.13
2018-08-22T04:00:10.096Z,30.10
2018-08-22T04:02:38.933Z,32.33
2018-08-22T04:05:07.787Z,35.33
2018-08-22T04:07:36.482Z,39.47
2018-08-22T04:10:05.405Z,36.80
2018-08-22T04:12:34.055Z,31.83
2018-08-22T04:15:02.698Z,36.00
2018-08-22T04:17:37.171Z,32.00
2018-08-22T04:20:06.686Z,35.13
2018-08-22T04:22:37.405Z,36.23
2018-08-22T04:25:06.563Z,38.83
2018-08-22T04:27:35.834Z,36.57
2018-08-22T04:30:05.001Z,35.90
2018-08-22T04:32:33.606Z,42.73
2018-08-22T04:35:02.280Z,43.27
2018-08-22T04:37:30.991Z,39.77
2018-08-22T04:39:59.703Z,36.90
2018-08-22T04:42:28.320Z,36.07
2018-08-22T04:44:56.946Z,34.60
2018-08-22T04:47:25.576Z,34.53
2018-08-22T04:49:54.165Z,32.20
2018-08-22T04:52:23.028Z,29.87
2018-08-22T04:54:51.853Z,27.60
2018-08-22T04:57:20.481Z,29.83
2018-08-22T04:59:49.253Z,26.70
2018-08-22T05:02:17.881Z,24.60
2018-08-22T05:04:46.620Z,25.03
2018-08-22T05:07:15.255Z,26.33
2018-08-22T05:09:43.885Z,25.50
2018-08-22T05:12:12.561Z,21.97
2018-08-22T05:14:41.223Z,26.77
2018-08-22T05:17:09.929Z,23.23
2018-08-22T05:19:38.664Z,26.20
2018-08-22T05:22:07.418Z,27.67
2018-08-22T05:24:36.159Z,24.80
2018-08-22T05:27:04.874Z,23.40
2018-08-22T05:29:33.506Z,19.00
2018-08-22T05:32:02.130Z,22.70
2018-08-22T05:34:30.745Z,24.77
2018-08-22T05:36:59.518Z,19.63
2018-08-22T05:39:28.238Z,18.30
2018-08-22T05:41:57.328Z,19.23
2018-08-22T05:44:26.066Z,20.77
2018-08-22T05:46:54.883Z,19.30
2018-08-22T05:49:23.587Z,20.07
2018-08-22T05:51:52.373Z,20.40
2018-08-22T05:54:21.177Z,19.80
2018-08-22T05:56:49.918Z,18.43
2018-08-22T05:59:18.564Z,19.60
2018-08-22T06:01:47.250Z,19.70
2018-08-22T06:04:15.892Z,20.33
2018-08-22T06:06:44.566Z,22.70
2018-08-22T06:09:13.591Z,20.50
2018-08-22T06:11:43.194Z,19.50
2018-08-22T06:14:12.319Z,19.93
2018-08-22T06:16:41.051Z,19.23
2018-08-22T06:19:09.925Z,19.63
2018-08-22T06:21:38.659Z,19.03
2018-08-22T06:24:07.438Z,21.60
2018-08-22T06:26:36.117Z,19.90
2018-08-22T06:29:04.781Z,19.00
2018-08-22T06:31:33.474Z,20.43
2018-08-22T06:34:02.229Z,24.10
2018-08-22T06:36:31.000Z,20.32
2018-08-22T06:39:00.338Z,20.10
2018-08-22T06:41:29.573Z,19.50
2018-08-22T06:43:58.396Z,20.60
2018-08-22T06:46:27.357Z,23.05
2018-08-22T06:48:56.134Z,21.50
2018-08-22T06:51:28.531Z,21.40
2018-08-22T06:53:57.343Z,20.53
2018-08-22T06:56:26.475Z,21.00
2018-08-22T06:58:55.798Z,20.97
2018-08-22T07:01:24.484Z,20.23
2018-08-22T07:03:53.683Z,19.65
2018-08-22T07:06:22.302Z,19.05
2018-08-22T07:08:50.924Z,18.87
2018-08-22T07:11:19.634Z,19.07
2018-08-22T07:13:48.399Z,19.20
2018-08-22T07:16:17.207Z,18.62
2018-08-22T07:18:46.059Z,18.55
2018-08-22T07:21:14.862Z,18.60
2018-08-22T07:23:43.643Z,18.67
2018-08-22T07:26:12.747Z,18.55
2018-08-22T07:28:41.511Z,19.10
2018-08-22T07:31:10.329Z,18.40
2018-08-22T07:33:39.094Z,17.95
2018-08-22T07:36:08.419Z,19.32
2018-08-22T07:38:37.196Z,16.90
2018-08-22T07:41:07.238Z,17.55
2018-08-22T07:43:36.139Z,16.10
2018-08-22T07:46:05.680Z,14.43
2018-08-22T07:48:34.986Z,14.45
2018-08-22T07:51:03.816Z,12.82
2018-08-22T07:53:33.242Z,11.90
2018-08-22T07:56:01.985Z,12.37
2018-08-22T07:58:30.733Z,11.83
2018-08-22T08:00:59.458Z,12.23
2018-08-22T08:03:28.233Z,13.48
2018-08-22T08:05:57.684Z,12.93
2018-08-22T08:08:26.426Z,13.25
2018-08-22T08:10:55.210Z,13.68
2018-08-22T08:13:28.851Z,11.73
2018-08-22T08:15:58.391Z,11.05
2018-08-22T08:18:27.423Z,13.22
2018-08-22T08:20:56.143Z,15.90
2018-08-22T08:23:24.823Z,11.40
2018-08-22T08:25:53.556Z,10.48
2018-08-22T08:28:22.291Z,10.15
2018-08-22T08:30:51.032Z,12.58
2018-08-22T08:33:19.749Z,12.47
2018-08-22T08:35:48.529Z,9.65
2018-08-22T08:38:17.214Z,10.72
2018-08-22T08:40:45.960Z,11.53
2018-08-22T08:43:14.688Z,10.88
2018-08-22T08:45:43.449Z,9.70
2018-08-22T08:48:12.072Z,10.60
2018-08-22T08:50:41.638Z,9.28
2018-08-22T08:53:10.336Z,9.40
2018-08-22T08:55:38.971Z,8.78
2018-08-22T08:58:08.359Z,9.50
2018-08-22T09:00:36.963Z,9.33
2018-08-22T09:03:05.598Z,9.15
2018-08-22T09:05:34.258Z,10.60
2018-08-22T09:08:02.978Z,9.68
2018-08-22T09:10:32.204Z,9.90
2018-08-22T09:13:00.868Z,8.58
2018-08-22T09:15:29.581Z,9.58
2018-08-22T09:17:58.206Z,8.75
2018-08-22T09:20:26.876Z,8.60
2018-08-22T09:22:55.545Z,8.73
2018-08-22T09:25:24.273Z,8.93
2018-08-22T09:27:53.066Z,8.28
2018-08-22T09:30:21.786Z,9.05
2018-08-22T09:32:50.528Z,11.25
2018-08-22T09:35:19.283Z,9.38
2018-08-22T09:37:48.045Z,9.53
2018-08-22T09:40:16.790Z,8.80
2018-08-22T09:42:45.573Z,9.58
2018-08-22T09:45:14.297Z,7.92
2018-08-22T09:47:43.896Z,8.18
2018-08-22T09:50:12.775Z,8.90
2018-08-22T09:52:41.539Z,9.03
2018-08-22T09:55:10.238Z,8.55
2018-08-22T09:57:38.869Z,8.70
2018-08-22T10:00:12.426Z,8.93
2018-08-22T10:02:41.045Z,10.48
2018-08-22T10:05:09.686Z,11.38
2018-08-22T10:07:38.297Z,8.90
2018-08-22T10:10:06.957Z,8.98
2018-08-22T10:12:35.636Z,10.85
2018-08-22T10:15:04.409Z,9.90
2018-08-22T10:17:33.086Z,8.05
2018-08-22T10:20:01.718Z,8.60
2018-08-22T10:22:30.326Z,9.50
2018-08-22T10:24:59.291Z,9.20
2018-08-22T10:27:27.919Z,10.48
2018-08-22T10:29:56.526Z,6.97
2018-08-22T10:32:25.152Z,8.03
2018-08-22T10:34:53.866Z,8.65
2018-08-22T10:37:22.754Z,8.88
2018-08-22T10:39:51.495Z,7.47
2018-08-22T10:42:20.401Z,11.45
2018-08-22T10:44:49.276Z,7.25
2018-08-22T10:47:17.944Z,7.22
2018-08-22T10:49:46.691Z,7.55
2018-08-22T10:52:15.845Z,9.98
2018-08-22T10:54:44.612Z,7.35
2018-08-22T10:57:13.367Z,7.17
2018-08-22T10:59:42.101Z,7.20
2018-08-22T11:02:10.864Z,6.80
2018-08-22T11:04:40.192Z,6.87
2018-08-22T11:07:08.820Z,8.55
2018-08-22T11:09:37.448Z,7.25
2018-08-22T11:12:06.082Z,7.25
2018-08-22T11:14:34.858Z,7.22
2018-08-22T11:17:03.534Z,7.17
2018-08-22T11:19:32.206Z,7.17
2018-08-22T11:22:17.659Z,6.87
2018-08-22T11:25:03.447Z,7.12
2018-08-22T11:27:48.844Z,6.78
2018-08-22T11:30:34.480Z,6.20
2018-08-22T11:33:19.876Z,5.92
2018-08-22T11:35:46.743Z,7.05
2018-08-22T11:38:15.536Z,9.33
2018-08-22T11:40:44.228Z,8.10
2018-08-22T11:43:12.921Z,7.00
2018-08-22T11:45:41.777Z,9.30
2018-08-22T11:48:10.967Z,6.70
2018-08-22T11:50:39.834Z,6.47
2018-08-22T11:53:08.625Z,7.22
2018-08-22T11:55:37.961Z,7.70
2018-08-22T11:58:06.726Z,8.10
2018-08-22T12:00:35.760Z,6.60
2018-08-22T12:03:04.461Z,7.00
2018-08-22T12:05:33.131Z,6.17
2018-08-22T12:08:01.831Z,8.50
2018-08-22T12:10:31.185Z,8.18
2018-08-22T12:13:02.326Z,6.75
2018-08-22T12:15:31.432Z,7.08
2018-08-22T12:18:00.067Z,6.45
2018-08-22T12:20:29.159Z,6.78
2018-08-22T12:22:58.796Z,8.55
2018-08-22T12:25:28.680Z,6.58
2018-08-22T12:27:57.470Z,6.75
2018-08-22T12:30:26.127Z,6.37
2018-08-22T12:32:55.322Z,6.50
2018-08-22T12:35:23.999Z,7.22
2018-08-22T12:37:52.769Z,7.97
2018-08-22T12:40:21.432Z,6.70
2018-08-22T12:42:50.131Z,7.28
2018-08-22T12:45:19.230Z,7.45
2018-08-22T12:47:47.930Z,6.78
2018-08-22T12:50:16.858Z,7.25
2018-08-22T12:52:45.594Z,6.85
2018-08-22T12:55:14.344Z,7.15
2018-08-22T12:57:43.140Z,6.72
2018-08-22T13:00:11.987Z,8.38
2018-08-22T13:02:40.759Z,6.87
2018-08-22T13:05:09.639Z,6.80
2018-08-22T13:07:38.457Z,6.30
2018-08-22T13:10:07.387Z,6.55
2018-08-22T13:12:36.374Z,7.37
2018-08-22T13:15:06.339Z,6.58
2018-08-22T13:17:35.520Z,6.87
2018-08-22T13:20:04.849Z,6.40
2018-08-22T13:22:33.751Z,8.43
2018-08-22T13:25:02.999Z,6.40
2018-08-22T13:27:31.884Z,7.30
2018-08-22T13:30:00.704Z,6.35
2018-08-22T13:32:29.988Z,7.47
2018-08-22T13:34:58.805Z,8.85
2018-08-22T13:37:27.642Z,8.65
2018-08-22T13:39:56.558Z,8.58
2018-08-22T13:42:25.639Z,9.03
2018-08-22T13:44:54.323Z,9.13
2018-08-22T13:47:23.006Z,9.68
2018-08-22T13:49:51.699Z,10.15
2018-08-22T13:52:20.546Z,10.30
2018-08-22T13:54:49.519Z,9.15
2018-08-22T13:57:18.417Z,8.60
2018-08-22T13:59:47.167Z,9.10
2018-08-22T14:02:16.599Z,9.05
2018-08-22T14:04:45.644Z,8.70
2018-08-22T14:07:14.289Z,9.65
2018-08-22T14:09:42.965Z,9.20
2018-08-22T14:12:12.082Z,12.07
2018-08-22T14:14:40.816Z,11.73
2018-08-22T14:17:10.107Z,11.50
2018-08-22T14:19:38.972Z,12.10
2018-08-22T14:22:07.634Z,13.03
2018-08-22T14:24:36.352Z,11.55
2018-08-22T14:27:05.240Z,11.12
2018-08-22T14:29:33.908Z,10.10
2018-08-22T14:32:02.589Z,9.68
2018-08-22T14:34:31.334Z,10.05
2018-08-22T14:36:59.999Z,11.22
2018-08-22T14:39:28.835Z,10.13
2018-08-22T14:41:57.567Z,9.15
2018-08-22T14:44:26.397Z,9.15
2018-08-22T14:46:55.002Z,10.87
2018-08-22T14:49:23.632Z,11.87
2018-08-22T14:51:52.328Z,12.97
2018-08-22T14:54:21.120Z,13.53
2018-08-22T14:56:50.478Z,12.73
2018-08-22T14:59:19.094Z,12.70
2018-08-22T15:01:47.845Z,13.40
2018-08-22T15:04:17.132Z,11.93
2018-08-22T15:06:45.896Z,13.00
2018-08-22T15:09:19.415Z,11.03
2018-08-22T15:11:49.198Z,11.40
2018-08-22T15:14:19.018Z,13.10
2018-08-22T15:16:47.703Z,12.77
2018-08-22T15:19:16.490Z,12.07
2018-08-22T15:21:45.250Z,11.00
2018-08-22T15:24:14.003Z,10.70
2018-08-22T15:26:42.849Z,10.70
2018-08-22T15:29:11.488Z,11.10
2018-08-22T15:31:40.163Z,10.90
2018-08-22T15:34:09.180Z,10.70
2018-08-22T15:36:37.893Z,12.03
2018-08-22T15:39:10.363Z,14.90
2018-08-22T15:41:39.923Z,12.20
2018-08-22T15:44:08.704Z,14.60
2018-08-22T15:46:37.516Z,12.67
2018-08-22T15:49:06.243Z,14.23
2018-08-22T15:51:35.377Z,16.83
2018-08-22T15:54:13.206Z,19.30
2018-08-22T15:56:42.089Z,19.03
2018-08-22T15:59:12.070Z,19.40
2018-08-22T16:01:40.871Z,15.77
2018-08-22T16:04:10.078Z,16.33
2018-08-22T16:06:38.898Z,18.40
2018-08-22T16:09:15.670Z,14.67
2018-08-22T16:11:45.185Z,14.87
2018-08-22T16:14:14.061Z,15.17
2018-08-22T16:16:42.884Z,19.70
2018-08-22T16:19:12.744Z,18.73
2018-08-22T16:21:41.494Z,19.63
2018-08-22T16:24:10.287Z,20.63
2018-08-22T16:26:39.069Z,22.60
2018-08-22T16:29:07.795Z,15.13
2018-08-22T16:31:42.149Z,15.23
2018-08-22T16:34:11.561Z,14.30
2018-08-22T16:36:40.371Z,14.40
2018-08-22T16:39:09.861Z,16.83
2018-08-22T16:41:38.806Z,20.97
2018-08-22T16:44:09.244Z,18.70
2018-08-22T16:46:38.116Z,18.93
2018-08-22T16:49:07.348Z,19.27
2018-08-22T16:51:36.038Z,18.40
2018-08-22T16:54:09.426Z,17.63
2018-08-22T16:56:38.311Z,18.30
2018-08-22T16:59:10.154Z,17.77
2018-08-22T17:01:41.587Z,17.50
2018-08-22T17:04:10.413Z,20.90
2018-08-22T17:06:39.288Z,18.60
2018-08-22T17:09:09.853Z,19.87
2018-08-22T17:11:39.049Z,21.70
2018-08-22T17:14:07.912Z,19.23
2018-08-22T17:16:36.569Z,19.90
2018-08-22T17:19:05.473Z,17.20
2018-08-22T17:21:34.716Z,16.13
2018-08-22T17:24:03.361Z,18.50
2018-08-22T17:26:32.018Z,19.13
2018-08-22T17:29:01.181Z,19.87
2018-08-22T17:31:30.300Z,18.87
2018-08-22T17:34:01.378Z,14.90
2018-08-22T17:36:30.046Z,19.40
2018-08-22T17:38:59.880Z,21.90
2018-08-22T17:41:29.650Z,21.93
2018-08-22T17:44:04.038Z,21.17
2018-08-22T17:46:36.609Z,24.00
2018-08-22T17:49:05.491Z,22.50
2018-08-22T17:52:37.283Z,22.03
2018-08-22T17:55:06.544Z,21.17
2018-08-22T17:57:35.292Z,23.23
2018-08-22T18:00:04.271Z,22.67
2018-08-22T18:02:32.986Z,24.03
2018-08-22T18:05:02.948Z,23.00
2018-08-22T18:07:31.623Z,22.17
2018-08-22T18:10:02.193Z,22.57
2018-08-22T18:12:31.044Z,23.90
2018-08-22T18:15:01.761Z,20.90
2018-08-22T18:17:30.561Z,20.10
2018-08-22T18:19:59.635Z,21.63
2018-08-22T18:22:33.120Z,22.77
2018-08-22T18:25:01.927Z,22.80
2018-08-22T18:27:30.660Z,21.90
2018-08-22T18:29:59.355Z,21.70
2018-08-22T18:32:28.048Z,20.93
2018-08-22T18:35:10.058Z,33.90
2018-08-22T18:37:39.469Z,22.63
2018-08-22T18:40:22.641Z,24.20
2018-08-22T18:42:57.057Z,24.30
2018-08-22T18:45:26.326Z,28.50
2018-08-22T18:47:55.018Z,25.60
2018-08-22T18:50:23.912Z,26.03
2018-08-22T18:53:00.506Z,27.17
2018-08-22T18:55:33.578Z,25.70
2018-08-22T18:58:04.316Z,26.03
2018-08-22T19:00:37.098Z,28.23
2018-08-22T19:03:05.927Z,28.30
2018-08-22T19:05:35.992Z,26.23
2018-08-22T19:08:13.841Z,28.63
2018-08-22T19:10:45.956Z,23.43
2018-08-22T19:13:17.962Z,26.57
2018-08-22T19:15:50.784Z,28.53
2018-08-22T19:18:19.509Z,24.60
2018-08-22T19:20:49.284Z,26.30
2018-08-22T19:23:17.969Z,25.60
2018-08-22T19:25:48.626Z,24.53
2018-08-22T19:28:18.307Z,24.33
2018-08-22T19:30:47.436Z,26.43
2018-08-22T19:33:20.182Z,24.30
2018-08-22T19:35:49.051Z,23.00
2018-08-22T19:38:20.126Z,22.73
2018-08-22T19:40:48.928Z,23.23
2018-08-22T19:43:17.682Z,25.80
2018-08-22T19:45:46.464Z,22.23
2018-08-22T19:48:15.099Z,22.30
2018-08-22T19:50:43.764Z,20.60
2018-08-22T19:53:13.364Z,21.80
2018-08-22T19:55:42.107Z,21.70
2018-08-22T19:58:11.454Z,22.13
2018-08-22T20:00:40.284Z,25.17
2018-08-22T20:03:09.237Z,24.53
2018-08-22T20:05:52.670Z,24.30
2018-08-22T20:08:27.016Z,24.40
2018-08-22T20:10:57.088Z,24.17
2018-08-22T20:13:37.763Z,22.40
2018-08-22T20:16:06.787Z,21.57
2018-08-22T20:18:36.285Z,21.53
2018-08-22T20:21:05.214Z,25.10
2018-08-22T20:23:34.041Z,24.90
2018-08-22T20:26:03.239Z,27.23
2018-08-22T20:28:33.292Z,27.83
2018-08-22T20:31:06.767Z,23.77
2018-08-22T20:33:36.162Z,24.83
2018-08-22T20:36:05.646Z,25.47
2018-08-22T20:38:34.856Z,24.77
2018-08-22T20:41:08.619Z,24.20
2018-08-22T20:43:37.459Z,25.43
2018-08-22T20:46:06.342Z,25.10
2018-08-22T20:48:36.172Z,28.97
2018-08-22T20:51:05.044Z,33.57
2018-08-22T20:53:33.782Z,32.83
2018-08-22T20:56:02.676Z,33.07
2018-08-22T20:58:31.446Z,33.13
2018-08-22T21:01:00.679Z,31.23
2018-08-22T21:03:29.458Z,34.63
2018-08-22T21:05:58.998Z,34.63
2018-08-22T21:08:28.782Z,30.40
2018-08-22T21:10:57.507Z,30.53
2018-08-22T21:13:28.658Z,31.33
2018-08-22T21:15:57.921Z,30.33
2018-08-22T21:18:26.903Z,26.43
2018-08-22T21:20:56.344Z,25.40
2018-08-22T21:23:25.913Z,27.73
2018-08-22T21:25:54.736Z,23.93
2018-08-22T21:28:29.818Z,29.77
2018-08-22T21:30:59.818Z,27.77
2018-08-22T21:33:29.685Z,25.87
2018-08-22T21:35:58.484Z,30.50
2018-08-22T21:38:27.498Z,31.53
2018-08-22T21:40:56.225Z,31.47
2018-08-22T21:43:25.006Z,33.17
2018-08-22T21:45:53.637Z,40.47
2018-08-22T21:48:25.964Z,34.73
2018-08-22T21:50:54.695Z,34.20
2018-08-22T21:53:23.978Z,33.07
2018-08-22T21:55:53.300Z,36.70
2018-08-22T21:58:22.172Z,32.13
2018-08-22T22:00:50.833Z,36.60
2018-08-22T22:03:25.831Z,29.37
2018-08-22T22:06:01.009Z,30.40
2018-08-22T22:08:29.898Z,32.53
2018-08-22T22:11:04.000Z,28.60
2018-08-22T22:13:32.956Z,29.77
2018-08-22T22:16:04.172Z,29.73
2018-08-22T22:18:34.037Z,28.40
2018-08-22T22:21:12.936Z,28.67
2018-08-22T22:23:47.842Z,29.70
2018-08-22T22:26:18.425Z,29.20
2018-08-22T22:28:47.140Z,32.77
2018-08-22T22:31:17.154Z,28.40
2018-08-22T22:33:57.265Z,30.13
2018-08-22T22:36:26.693Z,30.97
2018-08-22T22:38:55.380Z,32.80
2018-08-22T22:41:27.798Z,32.07
2018-08-22T22:43:56.610Z,29.93
2018-08-22T22:46:25.415Z,33.30
2018-08-22T22:48:54.306Z,33.57
2018-08-22T22:51:23.221Z,32.00
2018-08-22T22:53:52.061Z,35.63
2018-08-22T22:56:20.948Z,32.20
2018-08-22T22:58:49.673Z,34.30
2018-08-22T23:01:18.436Z,29.97
2018-08-22T23:03:47.256Z,29.37
2018-08-22T23:06:16.085Z,29.83
2018-08-22T23:08:45.721Z,30.87
2018-08-22T23:11:14.547Z,31.30
2018-08-22T23:13:43.330Z,30.57
2018-08-22T23:16:12.128Z,33.13
2018-08-22T23:18:40.943Z,34.37
2018-08-22T23:21:09.710Z,30.20
2018-08-22T23:23:38.771Z,33.47
2018-08-22T23:26:18.922Z,33.17
2018-08-22T23:28:47.746Z,33.70
2018-08-22T23:31:19.036Z,36.87
2018-08-22T23:33:47.955Z,35.17
2018-08-22T23:36:16.747Z,34.43
2018-08-22T23:38:45.527Z,29.57
2018-08-22T23:41:14.230Z,34.30
2018-08-22T23:43:50.514Z,33.77
2018-08-22T23:46:19.434Z,31.83
2018-08-22T23:48:55.167Z,36.63
2018-08-22T23:51:23.960Z,35.73
2018-08-22T23:53:56.322Z,31.57
2018-08-22T23:56:26.172Z,36.27
2018-08-22T23:58:55.601Z,38.73
